Time;durP1;ratioP1;P1;durP2;ratioP2;P2;SDS_P1;SDS_P2;PMS_P1;PMS_P2;Temp;Humidity;BMP_temperature;BMP_pressure;BME280_temperature;BME280_humidity;BME280_pressure;Samples;Min_cycle;Max_cycle;Signal;HPM_P1;HPM_P2
2023/06/23 00:00:13;;;;;;;16.10;8.45;;;;;;;15.42;100.00;101180.78;4947207;28;20105;-73
2023/06/23 00:02:40;;;;;;;15.85;7.63;;;;;;;15.40;100.00;101186.03;4947957;29;20050;-73
2023/06/23 00:05:11;;;;;;;18.88;8.10;;;;;;;15.40;100.00;101190.84;4948941;28;20050;-76
2023/06/23 00:07:37;;;;;;;16.08;7.80;;;;;;;15.38;100.00;101179.28;4944385;28;20051;-73
2023/06/23 00:10:05;;;;;;;17.23;8.05;;;;;;;15.34;100.00;101182.16;4949359;28;20437;-72
2023/06/23 00:12:34;;;;;;;16.65;7.57;;;;;;;15.32;100.00;101178.22;4947061;28;20114;-73
2023/06/23 00:15:01;;;;;;;13.75;7.07;;;;;;;15.27;100.00;101171.13;4949105;28;20051;-73
2023/06/23 00:17:28;;;;;;;13.07;6.80;;;;;;;15.26;100.00;101188.38;4947992;28;20588;-73
2023/06/23 00:19:54;;;;;;;20.75;9.45;;;;;;;15.24;100.00;101200.03;4948476;28;20648;-73
2023/06/23 00:22:21;;;;;;;18.35;9.05;;;;;;;15.21;100.00;101195.28;4949275;28;20079;-71
2023/06/23 00:24:48;;;;;;;15.13;7.13;;;;;;;15.14;100.00;101215.06;4951937;28;20046;-73
2023/06/23 00:27:14;;;;;;;18.02;8.60;;;;;;;15.16;100.00;101235.03;4953010;28;20721;-72
2023/06/23 00:29:41;;;;;;;18.08;8.40;;;;;;;15.10;100.00;101258.38;4949170;28;20122;-72
2023/06/23 00:32:07;;;;;;;20.95;9.68;;;;;;;15.09;100.00;101257.59;4946575;28;20633;-73
2023/06/23 00:34:34;;;;;;;16.75;7.95;;;;;;;15.02;100.00;101275.34;4948435;28;20122;-72
2023/06/23 00:37:00;;;;;;;22.65;10.35;;;;;;;15.07;100.00;101274.06;4948961;28;20534;-72
2023/06/23 00:39:27;;;;;;;19.55;10.70;;;;;;;15.06;100.00;101289.28;4949091;28;20102;-72
2023/06/23 00:41:53;;;;;;;19.98;11.30;;;;;;;15.05;100.00;101300.91;4949000;28;20082;-74
2023/06/23 00:44:20;;;;;;;22.50;10.88;;;;;;;15.01;100.00;101306.59;4948726;28;20047;-74
2023/06/23 00:46:47;;;;;;;26.95;10.90;;;;;;;15.02;100.00;101321.38;4945982;28;20055;-70
2023/06/23 00:49:15;;;;;;;20.48;12.05;;;;;;;15.04;100.00;101328.13;4949122;28;20105;-73
2023/06/23 00:51:41;;;;;;;22.35;12.10;;;;;;;15.04;100.00;101336.53;4948504;28;20146;-73
2023/06/23 00:54:08;;;;;;;22.75;10.82;;;;;;;15.03;100.00;101340.56;4948796;28;20098;-73
2023/06/23 00:56:35;;;;;;;25.42;12.60;;;;;;;15.01;100.00;101343.00;4948185;28;20146;-73
2023/06/23 00:59:02;;;;;;;22.83;12.80;;;;;;;15.06;100.00;101348.09;4948214;28;20055;-71
2023/06/23 01:01:31;;;;;;;21.63;11.85;;;;;;;15.07;100.00;101352.47;4946894;28;20584;-72
2023/06/23 01:03:59;;;;;;;20.85;11.32;;;;;;;15.04;100.00;101356.13;4948604;28;20098;-71
2023/06/23 01:06:36;;;;;;;24.10;11.43;;;;;;;15.05;100.00;101365.31;4946554;28;20509;-72
2023/06/23 01:09:12;;;;;;;23.35;12.40;;;;;;;15.07;100.00;101362.88;4948937;28;20051;-74
2023/06/23 01:12:05;;;;;;;27.98;13.18;;;;;;;15.07;100.00;101366.47;4948514;28;20130;-74
2023/06/23 01:14:51;;;;;;;25.17;14.00;;;;;;;15.08;100.00;101365.22;4954587;28;20589;-73
2023/06/23 01:17:48;;;;;;;24.08;13.93;;;;;;;15.12;100.00;101371.53;4947290;28;20114;-72
2023/06/23 01:20:24;;;;;;;24.20;14.25;;;;;;;15.12;100.00;101385.53;4947731;28;20047;-72
2023/06/23 01:23:02;;;;;;;29.10;14.70;;;;;;;15.09;100.00;101372.41;4948514;28;20125;-73
2023/06/23 01:25:45;;;;;;;22.88;13.05;;;;;;;15.10;100.00;101384.41;4947640;28;20121;-72
2023/06/23 01:28:18;;;;;;;22.65;12.65;;;;;;;15.03;100.00;101385.34;4951830;28;20090;-73
2023/06/23 01:30:53;;;;;;;24.10;14.15;;;;;;;15.12;100.00;101387.56;4949842;28;20055;-74
2023/06/23 01:33:42;;;;;;;26.57;14.60;;;;;;;15.10;100.00;101390.81;4951958;28;20181;-72
2023/06/23 01:36:19;;;;;;;27.17;14.63;;;;;;;15.15;100.00;101393.09;4955703;28;20146;-73
2023/06/23 01:38:50;;;;;;;28.33;15.10;;;;;;;15.17;100.00;101396.25;4951838;28;20091;-71
2023/06/23 01:41:21;;;;;;;24.85;14.45;;;;;;;15.16;100.00;101402.28;4949453;28;20524;-71
2023/06/23 01:43:53;;;;;;;27.27;15.52;;;;;;;15.14;100.00;101407.53;4951011;28;20133;-70
2023/06/23 01:46:34;;;;;;;32.00;16.55;;;;;;;15.14;100.00;101411.13;4948907;28;20477;-71
2023/06/23 01:49:10;;;;;;;27.85;15.15;;;;;;;15.14;100.00;101427.94;4951932;28;20122;-70
2023/06/23 01:51:44;;;;;;;28.90;16.30;;;;;;;15.13;100.00;101423.56;4951644;28;20055;-72
2023/06/23 01:54:13;;;;;;;28.25;16.75;;;;;;;15.10;100.00;101421.63;4950634;28;20146;-71
2023/06/23 01:56:42;;;;;;;28.35;15.95;;;;;;;15.07;100.00;101425.28;4949348;28;20055;-74
2023/06/23 01:59:11;;;;;;;26.80;13.82;;;;;;;15.03;100.00;101427.38;4946995;28;20047;-73
2023/06/23 02:01:39;;;;;;;26.35;13.95;;;;;;;14.98;100.00;101427.84;4948842;28;20078;-71
2023/06/23 02:04:07;;;;;;;26.40;14.35;;;;;;;15.00;100.00;101436.63;4951366;28;20051;-70
2023/06/23 02:06:36;;;;;;;27.95;15.27;;;;;;;15.05;100.00;101438.91;4949901;28;20054;-72
2023/06/23 02:09:09;;;;;;;27.92;15.23;;;;;;;15.08;100.00;101442.88;4951436;28;20087;-74
2023/06/23 02:11:36;;;;;;;24.83;14.00;;;;;;;15.07;100.00;101447.69;4949847;28;20082;-71
2023/06/23 02:14:04;;;;;;;25.50;14.27;;;;;;;15.03;100.00;101446.97;4950004;29;20563;-70
2023/06/23 02:16:33;;;;;;;28.45;14.15;;;;;;;14.96;100.00;101447.88;4960441;28;20134;-71
2023/06/23 02:19:01;;;;;;;28.35;15.65;;;;;;;15.00;100.00;101456.22;4951611;28;20047;-72
2023/06/23 02:21:29;;;;;;;26.55;14.50;;;;;;;15.03;100.00;101455.38;4951221;28;20059;-72
2023/06/23 02:24:02;;;;;;;28.23;14.98;;;;;;;15.06;100.00;101471.31;4981684;28;20068;-71
2023/06/23 02:26:30;;;;;;;23.42;13.63;;;;;;;15.09;100.00;101478.06;4950111;28;20585;-73
2023/06/23 02:28:56;;;;;;;26.30;15.43;;;;;;;15.08;100.00;101476.47;4949943;28;20082;-68
2023/06/23 02:31:24;;;;;;;27.63;14.70;;;;;;;15.11;100.00;101476.41;4956126;28;20130;-72
2023/06/23 02:33:51;;;;;;;26.00;13.95;;;;;;;15.09;100.00;101481.63;4952841;28;20039;-72
2023/06/23 02:36:20;;;;;;;26.75;13.95;;;;;;;15.02;100.00;101488.16;4949994;28;20661;-71
2023/06/23 02:38:56;;;;;;;25.33;10.55;;;;;;;14.88;100.00;101484.84;4950869;28;20074;-72
2023/06/23 02:41:25;;;;;;;28.75;13.35;;;;;;;14.99;100.00;101493.84;4948685;28;20079;-71
2023/06/23 02:43:56;;;;;;;24.75;11.70;;;;;;;14.90;100.00;101488.81;4951042;28;20051;-72
2023/06/23 02:46:27;;;;;;;25.17;12.48;;;;;;;14.86;100.00;101487.31;4950543;28;20134;-72
2023/06/23 02:49:01;;;;;;;25.30;13.00;;;;;;;14.97;100.00;101504.69;4951240;28;20055;-75
2023/06/23 02:51:29;;;;;;;23.77;12.60;;;;;;;14.93;100.00;101507.53;4950713;28;20086;-73
2023/06/23 02:54:05;;;;;;;25.42;13.60;;;;;;;14.93;100.00;101515.16;4949364;28;20466;-69
2023/06/23 02:56:43;;;;;;;28.58;15.30;;;;;;;14.93;100.00;101515.94;4948751;28;20514;-72
2023/06/23 02:59:17;;;;;;;26.33;14.13;;;;;;;14.92;100.00;101510.75;4948864;28;20057;-73
2023/06/23 03:01:46;;;;;;;28.05;15.18;;;;;;;14.98;100.00;101525.09;4950468;28;20478;-74
2023/06/23 03:04:13;;;;;;;30.80;15.57;;;;;;;14.98;100.00;101525.84;4950132;28;20079;-72
2023/06/23 03:06:42;;;;;;;28.25;13.70;;;;;;;14.95;100.00;101532.31;4949781;28;20139;-70
2023/06/23 03:09:09;;;;;;;28.67;14.85;;;;;;;14.93;100.00;101534.75;4946479;28;20082;-71
2023/06/23 03:11:37;;;;;;;28.88;14.00;;;;;;;14.90;100.00;101535.63;4949863;28;20054;-70
2023/06/23 03:14:04;;;;;;;27.73;15.45;;;;;;;14.98;100.00;101539.84;4950160;28;20079;-71
2023/06/23 03:17:05;;;;;;;32.13;16.27;;;;;;;14.94;100.00;101550.34;4944384;28;20143;-72
2023/06/23 03:19:56;;;;;;;27.40;15.32;;;;;;;14.95;100.00;101554.72;4944692;28;20055;-74
2023/06/23 03:22:29;;;;;;;27.15;15.35;;;;;;;14.95;100.00;101554.72;4946517;28;20075;-70
2023/06/23 03:25:02;;;;;;;31.15;16.48;;;;;;;14.96;100.00;101567.50;4949481;28;20047;-70
2023/06/23 03:27:32;;;;;;;31.55;16.40;;;;;;;14.94;100.00;101578.34;4949971;28;20063;-71
2023/06/23 03:30:09;;;;;;;34.03;17.55;;;;;;;14.92;100.00;101581.56;4943616;28;20143;-70
2023/06/23 03:32:41;;;;;;;27.85;16.27;;;;;;;14.98;100.00;101584.66;4945339;29;20051;-70
2023/06/23 03:35:13;;;;;;;31.25;15.45;;;;;;;14.98;100.00;101595.09;4946053;28;20075;-71
2023/06/23 03:37:54;;;;;;;28.35;15.55;;;;;;;14.93;100.00;101593.56;4950107;28;20129;-73
2023/06/23 03:40:24;;;;;;;34.25;18.40;;;;;;;15.00;100.00;101607.44;4949533;28;20051;-73
2023/06/23 03:42:58;;;;;;;35.90;18.25;;;;;;;14.97;100.00;101605.47;4955842;28;20224;-69
2023/06/23 03:45:27;;;;;;;34.95;17.67;;;;;;;14.98;100.00;101618.25;4946048;29;20051;-73
2023/06/23 03:48:00;;;;;;;39.85;20.00;;;;;;;15.01;100.00;101620.22;4942139;28;20425;-73
2023/06/23 03:50:32;;;;;;;34.30;18.90;;;;;;;15.02;100.00;101635.00;4948316;28;20055;-73
2023/06/23 03:53:02;;;;;;;33.55;17.58;;;;;;;14.98;100.00;101634.28;4949775;28;20074;-73
2023/06/23 03:55:31;;;;;;;24.40;13.18;;;;;;;14.93;100.00;101633.53;4941024;28;20085;-73
2023/06/23 03:58:04;;;;;;;31.65;16.38;;;;;;;14.99;100.00;101633.88;4948096;28;20142;-70
2023/06/23 04:00:34;;;;;;;33.42;18.00;;;;;;;14.95;100.00;101633.91;4949669;28;20070;-71
2023/06/23 04:03:04;;;;;;;30.60;16.90;;;;;;;15.03;100.00;101629.00;4949141;28;20348;-74
2023/06/23 04:05:33;;;;;;;34.88;18.17;;;;;;;15.02;100.00;101630.97;4947173;29;20460;-72
2023/06/23 04:08:03;;;;;;;35.72;19.13;;;;;;;15.04;100.00;101636.16;4949412;28;20055;-74
2023/06/23 04:10:32;;;;;;;33.72;18.98;;;;;;;15.07;100.00;101640.91;4986800;28;20055;-74
2023/06/23 04:13:01;;;;;;;37.83;18.17;;;;;;;15.06;100.00;101642.16;4945677;28;20454;-73
2023/06/23 04:15:29;;;;;;;36.00;19.40;;;;;;;15.10;100.00;101642.88;4948095;28;20093;-76
2023/06/23 04:17:58;;;;;;;36.00;18.83;;;;;;;15.11;100.00;101654.84;4949431;28;20050;-71
2023/06/23 04:20:26;;;;;;;42.88;21.45;;;;;;;15.14;100.00;101651.19;4948665;28;20141;-73
2023/06/23 04:22:55;;;;;;;35.75;20.50;;;;;;;15.12;100.00;101664.84;4941185;29;20907;-72
2023/06/23 04:25:23;;;;;;;38.85;21.35;;;;;;;15.11;100.00;101661.25;4949256;28;20073;-72
2023/06/23 04:27:52;;;;;;;39.50;21.75;;;;;;;15.13;100.00;101663.63;4947955;28;20058;-73
2023/06/23 04:30:21;;;;;;;35.95;20.75;;;;;;;15.16;100.00;101669.19;4949258;28;20047;-74
2023/06/23 04:32:47;;;;;;;35.80;19.85;;;;;;;15.18;100.00;101675.13;4948869;28;20083;-73
2023/06/23 04:35:14;;;;;;;34.10;21.02;;;;;;;15.20;100.00;101671.91;4946411;28;20844;-75
2023/06/23 04:37:52;;;;;;;42.45;21.52;;;;;;;15.20;100.00;101681.09;4955646;28;20142;-73
2023/06/23 04:40:57;;;;;;;41.80;21.92;;;;;;;15.23;100.00;101685.88;4948564;28;20062;-73
2023/06/23 04:43:28;;;;;;;41.10;22.13;;;;;;;15.23;100.00;101680.25;4945806;28;20051;-72
2023/06/23 04:46:18;;;;;;;37.58;21.30;;;;;;;15.22;100.00;101686.28;4949257;28;20047;-75
2023/06/23 04:48:48;;;;;;;41.72;22.33;;;;;;;15.22;100.00;101686.28;4948412;28;20179;-73
2023/06/23 04:51:17;;;;;;;40.60;22.13;;;;;;;15.22;100.00;101697.50;4948990;28;20075;-73
2023/06/23 04:53:47;;;;;;;43.53;22.50;;;;;;;15.26;100.00;101695.41;4948409;28;20118;-74
2023/06/23 04:56:18;;;;;;;38.63;20.80;;;;;;;15.21;100.00;101698.69;4946427;28;20158;-72
2023/06/23 04:58:52;;;;;;;43.60;22.73;;;;;;;15.25;100.00;101702.25;4948336;28;20055;-73
2023/06/23 05:01:19;;;;;;;41.13;23.98;;;;;;;15.29;100.00;101702.97;4952297;28;20051;-72
2023/06/23 05:03:52;;;;;;;39.63;20.63;;;;;;;15.32;100.00;101711.31;4951114;28;20461;-72
2023/06/23 05:06:22;;;;;;;43.65;22.45;;;;;;;15.34;100.00;101717.28;4950750;28;20051;-73
2023/06/23 05:08:51;;;;;;;36.05;22.50;;;;;;;15.33;100.00;101718.50;4952740;28;20486;-73
2023/06/23 05:11:20;;;;;;;42.08;23.92;;;;;;;15.29;100.00;101714.94;4946115;28;20055;-72
2023/06/23 05:13:49;;;;;;;39.42;22.05;;;;;;;15.30;100.00;101708.16;4952052;28;20146;-72
2023/06/23 05:16:17;;;;;;;43.67;22.20;;;;;;;15.31;100.00;101709.72;4952025;28;20573;-73
2023/06/23 05:18:46;;;;;;;41.45;22.90;;;;;;;15.30;100.00;101722.16;4951417;28;20146;-72
2023/06/23 05:21:16;;;;;;;36.38;20.80;;;;;;;15.25;100.00;101717.03;4947925;28;20055;-71
2023/06/23 05:23:45;;;;;;;36.13;20.88;;;;;;;15.25;100.00;101716.25;4950969;28;20074;-73
2023/06/23 05:26:20;;;;;;;37.05;22.50;;;;;;;15.30;100.00;101735.38;4958971;28;20047;-72
2023/06/23 05:28:49;;;;;;;35.03;20.08;;;;;;;15.27;100.00;101730.59;4954230;28;20051;-72
2023/06/23 05:31:19;;;;;;;38.72;22.77;;;;;;;15.32;100.00;101730.91;4952052;28;20678;-73
2023/06/23 05:33:48;;;;;;;38.28;21.98;;;;;;;15.28;100.00;101733.00;4950588;28;20059;-73
2023/06/23 05:36:16;;;;;;;42.10;23.98;;;;;;;15.32;100.00;101746.94;4951705;28;20055;-74
2023/06/23 05:38:45;;;;;;;39.42;21.85;;;;;;;15.34;100.00;101756.50;4947238;28;20082;-71
2023/06/23 05:41:12;;;;;;;41.45;24.40;;;;;;;15.37;100.00;101755.69;4951895;28;20047;-72
2023/06/23 05:43:38;;;;;;;39.95;23.83;;;;;;;15.39;100.00;101749.66;4951585;28;20055;-70
2023/06/23 05:46:10;;;;;;;40.03;24.08;;;;;;;15.35;100.00;101741.28;4951598;28;20414;-72
2023/06/23 05:49:01;;;;;;;44.17;25.63;;;;;;;15.40;100.00;101746.44;4950282;28;20066;-71
2023/06/23 05:51:31;;;;;;;40.50;23.83;;;;;;;15.41;100.00;101764.81;4951037;28;20125;-71
2023/06/23 05:54:01;;;;;;;38.17;22.70;;;;;;;15.43;100.00;101756.78;4951681;28;20130;-70
2023/06/23 05:56:35;;;;;;;38.78;24.00;;;;;;;15.39;100.00;101770.06;4945819;28;20853;-68
2023/06/23 05:59:07;;;;;;;42.83;25.55;;;;;;;15.46;100.00;101774.75;4949627;28;20118;-70
2023/06/23 06:01:39;;;;;;;41.95;25.63;;;;;;;15.53;100.00;101783.06;4951013;28;20067;-71
2023/06/23 06:04:11;;;;;;;40.80;24.17;;;;;;;15.56;100.00;101771.75;4950759;28;20070;-70
2023/06/23 06:06:39;;;;;;;40.78;24.42;;;;;;;15.66;100.00;101782.00;4952341;28;20483;-71
2023/06/23 06:09:10;;;;;;;41.92;26.30;;;;;;;15.72;100.00;101779.50;4947837;28;20155;-72
2023/06/23 06:11:40;;;;;;;43.40;25.33;;;;;;;15.80;100.00;101778.94;4949891;28;20454;-71
2023/06/23 06:14:09;;;;;;;43.33;25.27;;;;;;;15.93;100.00;101784.75;4950448;28;20142;-72
2023/06/23 06:16:36;;;;;;;44.30;28.08;;;;;;;15.99;100.00;101795.03;4948797;29;20055;-71
2023/06/23 06:19:05;;;;;;;41.45;24.13;;;;;;;16.05;100.00;101793.31;4951062;28;20058;-70
2023/06/23 06:21:34;;;;;;;38.65;24.65;;;;;;;16.13;100.00;101799.59;4950752;28;20114;-69
2023/06/23 06:24:04;;;;;;;40.70;24.23;;;;;;;16.18;100.00;101799.88;4950208;29;20094;-71
2023/06/23 06:26:31;;;;;;;42.22;23.75;;;;;;;16.23;100.00;101804.19;4948583;28;20486;-71
2023/06/23 06:29:00;;;;;;;35.10;22.25;;;;;;;16.33;100.00;101806.00;4944094;28;20114;-68
2023/06/23 06:31:29;;;;;;;41.63;25.23;;;;;;;16.47;100.00;101817.75;4948341;28;20070;-68
2023/06/23 06:33:58;;;;;;;38.90;23.58;;;;;;;16.59;100.00;101817.13;4948822;28;20047;-70
2023/06/23 06:36:29;;;;;;;35.63;22.70;;;;;;;16.69;100.00;101823.72;4949377;28;20058;-69
2023/06/23 06:38:57;;;;;;;39.50;22.23;;;;;;;16.71;100.00;101805.22;4943534;29;20641;-68
2023/06/23 06:41:24;;;;;;;37.83;23.00;;;;;;;16.90;100.00;101818.44;4950843;28;20139;-69
2023/06/23 06:43:51;;;;;;;35.90;22.00;;;;;;;16.97;100.00;101812.66;4951372;28;20494;-66
2023/06/23 06:46:19;;;;;;;48.75;23.08;;;;;;;17.06;100.00;101817.69;4949922;28;20043;-69
2023/06/23 06:48:47;;;;;;;32.97;20.35;;;;;;;17.17;100.00;101824.69;4950463;28;20493;-67
2023/06/23 06:51:17;;;;;;;35.25;22.50;;;;;;;17.18;100.00;101823.44;4948842;28;20059;-69
2023/06/23 06:53:45;;;;;;;32.63;20.05;;;;;;;17.23;100.00;101822.16;4948482;28;20592;-70
2023/06/23 06:56:13;;;;;;;34.63;18.75;;;;;;;17.28;100.00;101821.63;4945779;28;20043;-69
2023/06/23 06:58:40;;;;;;;32.42;20.23;;;;;;;17.29;100.00;101823.22;4947020;28;20573;-68
2023/06/23 07:01:07;;;;;;;35.83;19.67;;;;;;;17.34;100.00;101826.28;4948933;28;20680;-66
2023/06/23 07:03:35;;;;;;;32.85;19.83;;;;;;;17.41;100.00;101833.75;4947193;28;20070;-70
2023/06/23 07:06:02;;;;;;;33.72;19.73;;;;;;;17.43;100.00;101826.47;4943398;28;20051;-69
2023/06/23 07:08:28;;;;;;;29.42;18.88;;;;;;;17.42;100.00;101822.06;4947269;28;20055;-71
2023/06/23 07:10:55;;;;;;;29.92;18.48;;;;;;;17.52;100.00;101830.69;4949156;28;20039;-72
2023/06/23 07:13:21;;;;;;;30.48;17.90;;;;;;;17.65;100.00;101834.41;4944166;28;20509;-70
2023/06/23 07:15:48;;;;;;;29.15;16.67;;;;;;;17.72;100.00;101840.63;4948051;28;20042;-70
2023/06/23 07:18:14;;;;;;;28.27;15.32;;;;;;;17.76;100.00;101838.53;4948669;28;20166;-71
2023/06/23 07:20:41;;;;;;;28.55;16.35;;;;;;;17.82;100.00;101836.75;4954649;28;20069;-70
2023/06/23 07:23:08;;;;;;;28.80;16.20;;;;;;;17.91;100.00;101838.94;4948460;28;20779;-70
2023/06/23 07:25:35;;;;;;;26.40;15.15;;;;;;;18.02;100.00;101843.09;4949437;28;20047;-70
2023/06/23 07:28:02;;;;;;;25.90;14.88;;;;;;;18.11;100.00;101848.88;4938782;28;20075;-70
2023/06/23 07:30:28;;;;;;;26.73;15.52;;;;;;;18.13;100.00;101842.81;4949635;28;20114;-72
2023/06/23 07:32:55;;;;;;;24.90;14.95;;;;;;;18.13;100.00;101843.59;4945618;28;20043;-71
2023/06/23 07:35:21;;;;;;;27.98;14.65;;;;;;;18.23;100.00;101855.81;4949567;28;20047;-70
2023/06/23 07:37:48;;;;;;;26.00;13.98;;;;;;;18.27;100.00;101851.66;4944918;28;20709;-69
2023/06/23 07:40:15;;;;;;;24.55;13.82;;;;;;;18.33;100.00;101837.84;4949574;28;20054;-71
2023/06/23 07:42:42;;;;;;;26.30;13.20;;;;;;;18.44;100.00;101843.97;4945208;28;20094;-70
2023/06/23 07:45:09;;;;;;;28.10;14.07;;;;;;;18.51;100.00;101838.13;4940923;28;20047;-71
2023/06/23 07:47:35;;;;;;;24.65;13.18;;;;;;;18.53;100.00;101836.44;4944883;28;20585;-72
2023/06/23 07:50:02;;;;;;;29.98;13.80;;;;;;;18.62;100.00;101845.03;4947954;28;20101;-68
2023/06/23 07:52:29;;;;;;;26.42;13.05;;;;;;;18.69;100.00;101844.03;4949208;28;20063;-71
2023/06/23 07:54:55;;;;;;;22.55;11.95;;;;;;;18.72;100.00;101846.78;4947331;28;20055;-70
2023/06/23 07:57:22;;;;;;;19.48;11.15;;;;;;;18.80;100.00;101850.19;4946112;28;20150;-69
2023/06/23 07:59:49;;;;;;;22.45;9.75;;;;;;;18.91;100.00;101851.44;4949460;28;20058;-71
2023/06/23 08:02:15;;;;;;;20.58;10.13;;;;;;;19.01;100.00;101841.88;4948254;28;20047;-70
2023/06/23 08:04:42;;;;;;;20.60;10.55;;;;;;;19.11;100.00;101843.56;4947400;28;20051;-71
2023/06/23 08:07:09;;;;;;;19.58;11.60;;;;;;;19.13;100.00;101846.75;4947982;28;20055;-69
2023/06/23 08:09:35;;;;;;;22.35;10.95;;;;;;;19.21;100.00;101839.63;4947751;28;20102;-70
2023/06/23 08:12:02;;;;;;;21.17;9.20;;;;;;;19.25;100.00;101836.72;4946803;28;20868;-71
2023/06/23 08:14:29;;;;;;;19.50;10.93;;;;;;;19.19;100.00;101839.31;4943633;28;20095;-72
2023/06/23 08:16:55;;;;;;;20.35;10.70;;;;;;;19.24;100.00;101840.78;4943409;28;20110;-74
2023/06/23 08:19:24;;;;;;;24.33;10.52;;;;;;;19.31;100.00;101840.56;4947414;28;20061;-75
2023/06/23 08:21:52;;;;;;;19.77;8.75;;;;;;;19.27;100.00;101837.84;4945919;28;20075;-73
2023/06/23 08:24:18;;;;;;;18.88;9.50;;;;;;;19.34;100.00;101839.66;4945257;28;20114;-72
2023/06/23 08:26:45;;;;;;;14.30;7.00;;;;;;;19.45;100.00;101832.41;4948817;28;20138;-74
2023/06/23 08:29:12;;;;;;;16.17;8.70;;;;;;;19.53;100.00;101838.66;4949031;28;20735;-69
2023/06/23 08:31:38;;;;;;;15.25;7.18;;;;;;;19.61;100.00;101835.16;4947683;28;20055;-71
2023/06/23 08:34:05;;;;;;;16.35;7.75;;;;;;;19.63;100.00;101843.94;4946457;28;20481;-74
2023/06/23 08:36:32;;;;;;;16.60;7.75;;;;;;;19.71;100.00;101848.09;4946559;28;20070;-66
2023/06/23 08:38:58;;;;;;;14.60;6.70;;;;;;;19.82;100.00;101846.97;4948165;28;20079;-70
2023/06/23 08:41:25;;;;;;;14.02;6.57;;;;;;;19.64;100.00;101842.69;4946973;28;20783;-70
2023/06/23 08:43:54;;;;;;;14.15;6.60;;;;;;;19.86;100.00;101856.91;4947822;28;20050;-69
2023/06/23 08:46:26;;;;;;;16.63;6.13;;;;;;;20.01;100.00;101851.56;4951652;28;20050;-71
2023/06/23 08:48:56;;;;;;;12.35;6.25;;;;;;;20.15;100.00;101865.94;4944789;28;20051;-71
2023/06/23 08:51:23;;;;;;;16.85;7.25;;;;;;;20.35;100.00;101871.34;4946778;29;20047;-73
2023/06/23 08:53:50;;;;;;;13.02;6.43;;;;;;;20.49;100.00;101874.44;4947568;28;20047;-69
2023/06/23 08:56:20;;;;;;;11.68;5.57;;;;;;;20.56;100.00;101864.94;4946306;28;20051;-71
2023/06/23 08:58:47;;;;;;;14.68;5.90;;;;;;;20.61;100.00;101869.97;4946004;28;20486;-69
2023/06/23 09:01:14;;;;;;;14.25;5.65;;;;;;;20.57;100.00;101867.28;4947243;28;20051;-70
2023/06/23 09:03:40;;;;;;;10.55;4.78;;;;;;;20.62;100.00;101854.63;4945065;28;20043;-71
2023/06/23 09:06:07;;;;;;;12.80;5.10;;;;;;;20.73;100.00;101858.63;4947664;28;20053;-70
2023/06/23 09:08:34;;;;;;;10.90;4.95;;;;;;;20.94;100.00;101871.19;4945827;28;20055;-71
2023/06/23 09:11:01;;;;;;;14.68;6.15;;;;;;;20.96;100.00;101868.69;4946278;28;20047;-72
2023/06/23 09:13:33;;;;;;;12.95;4.72;;;;;;;20.81;100.00;101870.44;4945141;28;20055;-70
2023/06/23 09:16:00;;;;;;;13.07;5.20;;;;;;;20.98;100.00;101883.94;4947451;28;20146;-71
2023/06/23 09:18:35;;;;;;;13.07;5.15;;;;;;;21.09;100.00;101889.16;4942041;28;20075;-72
2023/06/23 09:21:02;;;;;;;12.57;5.55;;;;;;;21.09;100.00;101878.66;4947205;28;20051;-70
2023/06/23 09:23:33;;;;;;;14.10;5.95;;;;;;;21.19;100.00;101877.47;4948155;28;20063;-69
2023/06/23 09:26:03;;;;;;;11.52;3.85;;;;;;;21.03;100.00;101874.09;4947033;28;20047;-71
2023/06/23 09:28:35;;;;;;;11.90;4.05;;;;;;;21.22;100.00;101881.41;4948149;28;20051;-68
2023/06/23 09:31:16;;;;;;;12.65;4.50;;;;;;;21.37;100.00;101883.19;4947445;28;20113;-68
2023/06/23 09:33:48;;;;;;;10.40;4.38;;;;;;;21.43;100.00;101886.22;4945825;28;20130;-70
2023/06/23 09:36:15;;;;;;;9.05;4.47;;;;;;;21.45;100.00;101887.34;4940275;28;20596;-69
2023/06/23 09:38:42;;;;;;;12.20;4.55;;;;;;;21.46;100.00;101886.06;4947736;28;20577;-69
2023/06/23 09:41:13;;;;;;;9.60;4.63;;;;;;;21.64;100.00;101891.81;4947914;29;20510;-70
2023/06/23 09:43:50;;;;;;;12.27;5.30;;;;;;;21.53;100.00;101887.81;4949000;28;20477;-69
2023/06/23 09:46:19;;;;;;;12.73;5.28;;;;;;;21.71;100.00;101888.69;4950009;28;20076;-69
2023/06/23 09:48:49;;;;;;;12.20;4.95;;;;;;;21.94;100.00;101890.97;4951724;28;20545;-69
2023/06/23 09:51:18;;;;;;;12.90;5.60;;;;;;;22.15;100.00;101897.78;4951223;28;20474;-70
2023/06/23 09:53:46;;;;;;;11.23;5.57;;;;;;;22.21;100.00;101893.09;4951773;28;20059;-70
2023/06/23 09:56:18;;;;;;;12.15;6.00;;;;;;;21.89;100.00;101894.44;4954405;28;20137;-69
2023/06/23 09:58:47;;;;;;;8.65;3.47;;;;;;;21.55;100.00;101900.28;4951513;28;20051;-71
2023/06/23 10:01:15;;;;;;;13.18;5.63;;;;;;;21.44;100.00;101905.53;4947370;29;20057;-71
2023/06/23 10:03:42;;;;;;;10.95;5.25;;;;;;;21.67;100.00;101909.94;4951918;28;20059;-73
2023/06/23 10:06:30;;;;;;;11.48;5.18;;;;;;;21.87;100.00;101905.44;4950490;28;20051;-71
2023/06/23 10:08:59;;;;;;;12.05;5.82;;;;;;;22.17;100.00;101901.72;4952054;28;20076;-70
2023/06/23 10:11:36;;;;;;;12.55;5.35;;;;;;;22.39;100.00;101895.97;4952223;28;20798;-71
2023/06/23 10:14:14;;;;;;;10.48;5.60;;;;;;;22.62;100.00;101897.38;4946179;28;20066;-70
2023/06/23 10:16:45;;;;;;;15.73;6.15;;;;;;;22.66;100.00;101915.81;4952116;28;20589;-69
2023/06/23 10:19:12;;;;;;;15.40;6.70;;;;;;;22.72;100.00;101913.91;4948375;28;20489;-68
2023/06/23 10:21:41;;;;;;;12.93;6.10;;;;;;;22.68;100.00;101909.66;4949398;28;20094;-70
2023/06/23 10:24:10;;;;;;;12.50;6.03;;;;;;;22.59;100.00;101910.44;4951260;28;20086;-66
2023/06/23 10:26:37;;;;;;;15.55;6.82;;;;;;;22.50;100.00;101906.81;4950360;28;20478;-71
2023/06/23 10:29:06;;;;;;;14.73;5.45;;;;;;;22.59;100.00;101904.00;4943731;28;20235;-71
2023/06/23 10:31:35;;;;;;;13.82;5.95;;;;;;;22.83;100.00;101911.38;4943893;28;20051;-71
2023/06/23 10:34:05;;;;;;;14.13;6.20;;;;;;;22.86;100.00;101907.59;4949601;28;20149;-70
2023/06/23 10:36:38;;;;;;;14.68;6.07;;;;;;;23.08;100.00;101908.22;4950097;28;20051;-69
2023/06/23 10:39:06;;;;;;;12.45;5.85;;;;;;;22.94;100.00;101908.84;4950168;28;20059;-69
2023/06/23 10:41:34;;;;;;;13.93;6.45;;;;;;;23.16;100.00;101906.63;4950894;28;20086;-69
2023/06/23 10:44:03;;;;;;;12.80;5.63;;;;;;;23.34;100.00;101905.78;4949677;28;20051;-71
2023/06/23 10:46:30;;;;;;;12.80;5.90;;;;;;;23.23;100.00;101914.81;4950024;28;20058;-70
2023/06/23 10:48:57;;;;;;;11.20;5.10;;;;;;;23.29;100.00;101912.88;4950319;29;20071;-69
2023/06/23 10:51:25;;;;;;;10.48;5.53;;;;;;;23.44;100.00;101910.94;4951822;28;20062;-72
2023/06/23 10:53:58;;;;;;;12.20;5.28;;;;;;;23.58;100.00;101915.13;4950680;28;20862;-69
2023/06/23 10:56:39;;;;;;;11.52;5.13;;;;;;;23.72;100.00;101912.44;4949770;28;20043;-73
2023/06/23 10:59:23;;;;;;;11.35;4.68;;;;;;;23.96;100.00;101912.44;4936878;28;20055;-70
2023/06/23 11:01:59;;;;;;;9.67;4.47;;;;;;;23.82;100.00;101907.47;4947305;28;20090;-72
2023/06/23 11:04:31;;;;;;;11.75;5.28;;;;;;;23.70;100.00;101906.44;4947206;28;20083;-71
2023/06/23 11:07:09;;;;;;;11.10;5.28;;;;;;;23.91;100.00;101902.56;4940144;29;20061;-71
2023/06/23 11:10:05;;;;;;;13.18;5.03;;;;;;;23.99;100.00;101915.13;4941830;29;20134;-71
2023/06/23 11:12:38;;;;;;;11.60;4.38;;;;;;;23.92;100.00;101909.81;4944342;28;20134;-68
2023/06/23 11:15:20;;;;;;;10.15;4.85;;;;;;;24.07;100.00;101916.31;4947685;28;20091;-70
2023/06/23 11:18:00;;;;;;;9.60;5.20;;;;;;;24.16;100.00;101906.97;4942861;28;20051;-68